Kingville, South Carolina
Current Conditions -  °F | °C
As of 7:58 PM on Tuesday 21 Oct 2014 (Local Time) from KMMT Reporting Station
Scattered Clouds Scattered Clouds  
Wind Chill: 62°   Ceiling: Unl
Heat Index: 62°   Visibility: 10mi
Dew Point: 52°   Wind: 0mph
Humidity: 70%   Direction: NA
Pressure: 29.9"   Gusts: NA
Location:  33.8428°N, 80.7414°W
Report Text: KMMT 212358Z 00000KT 10SM SCT070 16/11 A2990 RMK AO2A SLP127 T01640110 10259 20164 52014
Loading
Personal Weather Stations






























Interactive Weather Map
Tropical Storm Tracking
New forecast layout! Learn more

10-Day Weather Forecast

Advertisements
Track Severe Weather on mobile